Time;durP1;ratioP1;P1;durP2;ratioP2;P2;SDS_P1;SDS_P2;PMS_P1;PMS_P2;Temp;Humidity;BMP_temperature;BMP_pressure;BME280_temperature;BME280_humidity;BME280_pressure;Samples;Min_cycle;Max_cycle;Signal;HPM_P1;HPM_P2
2023/03/31 00:00:47;;;;;;;6.45;2.53;;;;;;;10.17;100.00;100384.53;5090298;28;20460;-36
2023/03/31 00:03:20;;;;;;;6.65;2.25;;;;;;;10.12;100.00;100364.72;5090181;28;20086;-36
2023/03/31 00:05:54;;;;;;;7.10;2.78;;;;;;;10.17;100.00;100378.31;5090634;28;20031;-36
2023/03/31 00:08:20;;;;;;;6.68;2.30;;;;;;;10.07;100.00;100357.31;5090341;28;20024;-36
2023/03/31 00:10:46;;;;;;;8.20;2.60;;;;;;;10.14;100.00;100363.41;5090263;28;20465;-36
2023/03/31 00:13:12;;;;;;;7.10;2.85;;;;;;;10.15;100.00;100358.81;5079270;28;20024;-36
2023/03/31 00:15:38;;;;;;;6.88;2.47;;;;;;;10.15;100.00;100346.16;5076700;28;20127;-36
2023/03/31 00:18:03;;;;;;;8.68;2.72;;;;;;;10.20;100.00;100340.00;5075083;28;20039;-36
2023/03/31 00:20:29;;;;;;;6.68;2.42;;;;;;;10.14;100.00;100324.75;5076821;28;20028;-36
2023/03/31 00:22:56;;;;;;;8.55;2.33;;;;;;;10.18;100.00;100325.91;5075229;28;20368;-36
2023/03/31 00:25:21;;;;;;;7.28;2.13;;;;;;;10.13;100.00;100315.03;5076939;28;20027;-37
2023/03/31 00:27:49;;;;;;;6.45;1.80;;;;;;;10.18;100.00;100323.22;5076189;28;20028;-36
2023/03/31 00:30:14;;;;;;;5.75;2.00;;;;;;;10.22;100.00;100313.56;5076426;28;20115;-36
2023/03/31 00:32:40;;;;;;;5.72;2.05;;;;;;;10.24;100.00;100312.28;5076358;28;20104;-36
2023/03/31 00:35:06;;;;;;;5.50;1.70;;;;;;;10.18;100.00;100309.72;5076610;28;20028;-36
2023/03/31 00:37:34;;;;;;;8.60;2.35;;;;;;;10.20;100.00;100304.88;5076256;28;20016;-36
2023/03/31 00:40:00;;;;;;;7.53;2.25;;;;;;;10.21;100.00;100299.25;5076406;28;20027;-36
2023/03/31 00:42:26;;;;;;;7.60;1.80;;;;;;;10.18;100.00;100293.50;5075905;28;20028;-36
2023/03/31 00:45:21;;;;;;;8.40;2.15;;;;;;;10.02;100.00;100258.09;5076155;28;20036;-36
2023/03/31 00:47:56;;;;;;;3.63;1.73;;;;;;;10.11;100.00;100268.53;5075832;28;20020;-36
2023/03/31 00:50:27;;;;;;;5.45;2.05;;;;;;;10.01;100.00;100251.06;5076043;28;20036;-36
2023/03/31 00:53:02;;;;;;;5.18;2.00;;;;;;;10.07;100.00;100262.78;5075990;28;20380;-36
2023/03/31 00:55:33;;;;;;;4.75;1.70;;;;;;;10.05;100.00;100254.91;5075956;28;20032;-36
2023/03/31 00:58:00;;;;;;;7.82;2.30;;;;;;;10.06;100.00;100258.44;5076179;28;20025;-36
2023/03/31 01:00:26;;;;;;;6.57;2.00;;;;;;;10.04;100.00;100260.53;5076139;28;20531;-36
2023/03/31 01:02:58;;;;;;;5.25;1.92;;;;;;;10.02;100.00;100241.06;5076024;28;20334;-36
2023/03/31 01:05:40;;;;;;;7.70;2.00;;;;;;;10.05;100.00;100244.13;5075741;28;20445;-36
2023/03/31 01:08:06;;;;;;;6.07;1.85;;;;;;;9.98;100.00;100243.44;5075369;28;20025;-36
2023/03/31 01:10:40;;;;;;;7.07;1.75;;;;;;;10.03;100.00;100240.81;5075714;28;20032;-36
2023/03/31 01:13:10;;;;;;;5.35;2.00;;;;;;;10.01;100.00;100237.56;5075819;28;20024;-36
2023/03/31 01:15:37;;;;;;;5.80;1.80;;;;;;;9.99;100.00;100223.44;5074846;28;20352;-36
2023/03/31 01:18:08;;;;;;;5.68;2.35;;;;;;;10.01;100.00;100221.34;5075159;28;20085;-36
2023/03/31 01:20:52;;;;;;;6.75;2.28;;;;;;;10.03;100.00;100216.50;5075941;28;20357;-36
2023/03/31 01:23:43;;;;;;;6.50;2.13;;;;;;;10.02;100.00;100206.78;5074664;28;20052;-36
2023/03/31 01:26:37;;;;;;;7.32;2.33;;;;;;;10.05;100.00;100209.00;5074954;28;20464;-36
2023/03/31 01:29:40;;;;;;;5.93;1.58;;;;;;;10.03;100.00;100191.38;5075334;28;20025;-36
2023/03/31 01:32:09;;;;;;;6.70;1.95;;;;;;;10.05;100.00;100191.94;5075748;28;20058;-36
2023/03/31 01:34:40;;;;;;;5.60;1.75;;;;;;;10.07;100.00;100190.66;5074511;28;20479;-36
2023/03/31 01:37:41;;;;;;;7.90;2.03;;;;;;;10.04;100.00;100185.72;5074550;28;20024;-36
2023/03/31 01:40:13;;;;;;;7.35;2.30;;;;;;;10.03;100.00;100176.00;5075515;28;20082;-36
2023/03/31 01:42:43;;;;;;;7.38;1.75;;;;;;;9.98;100.00;100166.97;5075262;28;20024;-36
2023/03/31 01:45:11;;;;;;;8.02;2.10;;;;;;;10.03;100.00;100167.06;5075247;28;20029;-36
2023/03/31 01:47:56;;;;;;;8.10;2.25;;;;;;;10.00;100.00;100168.41;5074842;28;20043;-36
2023/03/31 01:50:43;;;;;;;8.35;2.15;;;;;;;9.97;100.00;100152.66;5074535;28;20071;-36
2023/03/31 01:53:32;;;;;;;8.48;2.28;;;;;;;10.05;100.00;100154.13;5074512;28;20457;-36
2023/03/31 01:56:09;;;;;;;8.85;1.75;;;;;;;10.01;100.00;100150.31;5074694;28;20444;-36
2023/03/31 01:58:38;;;;;;;10.15;2.33;;;;;;;10.00;100.00;100135.13;5074408;28;20013;-36
2023/03/31 02:01:38;;;;;;;9.38;2.33;;;;;;;10.02;100.00;100135.72;5074888;28;20051;-36
2023/03/31 02:04:25;;;;;;;7.85;2.03;;;;;;;10.02;100.00;100131.13;5063494;28;20036;-36
2023/03/31 02:06:56;;;;;;;9.80;2.72;;;;;;;10.00;100.00;100119.78;5074538;28;20024;-36
2023/03/31 02:09:28;;;;;;;9.45;2.65;;;;;;;9.97;100.00;100103.22;5074230;28;20021;-36
2023/03/31 02:11:57;;;;;;;7.65;2.17;;;;;;;9.99;100.00;100091.09;5074438;28;20025;-36
2023/03/31 02:14:26;;;;;;;7.97;2.20;;;;;;;9.98;100.00;100084.06;5074042;28;20031;-36
2023/03/31 02:16:57;;;;;;;7.85;2.17;;;;;;;9.99;100.00;100084.88;5073782;28;20020;-36
2023/03/31 02:19:27;;;;;;;6.72;1.88;;;;;;;9.97;100.00;100068.13;5074821;28;20024;-36
2023/03/31 02:21:54;;;;;;;5.60;1.77;;;;;;;9.96;100.00;100061.09;5074447;28;20437;-36
2023/03/31 02:24:24;;;;;;;7.88;2.08;;;;;;;9.95;100.00;100057.53;5073596;28;20020;-36
2023/03/31 02:27:06;;;;;;;9.50;1.90;;;;;;;9.95;100.00;100045.91;5074781;28;20070;-36
2023/03/31 02:29:31;;;;;;;4.75;1.58;;;;;;;9.95;100.00;100038.63;5074170;28;20512;-36
2023/03/31 02:32:09;;;;;;;6.70;1.65;;;;;;;9.98;100.00;100026.53;5073619;28;20115;-36
2023/03/31 02:34:35;;;;;;;6.75;2.22;;;;;;;9.95;100.00;100021.63;5074319;28;20080;-36
2023/03/31 02:37:01;;;;;;;7.82;1.67;;;;;;;9.95;100.00;100018.91;5073963;28;20479;-36
2023/03/31 02:39:33;;;;;;;9.25;2.22;;;;;;;9.94;100.00;100015.41;5073538;28;20104;-36
2023/03/31 02:42:01;;;;;;;5.22;1.90;;;;;;;9.90;100.00;100000.75;5074233;28;20059;-36
2023/03/31 02:44:26;;;;;;;9.02;2.83;;;;;;;9.88;100.00;99989.38;5073395;28;20020;-36
2023/03/31 02:46:52;;;;;;;7.32;1.80;;;;;;;9.90;100.00;99989.94;5074253;28;20055;-36
2023/03/31 02:49:18;;;;;;;11.25;2.97;;;;;;;9.89;100.00;99971.31;5073976;28;20051;-36
2023/03/31 02:51:56;;;;;;;11.93;3.03;;;;;;;9.88;100.00;99959.69;5073653;28;20029;-36
2023/03/31 02:54:42;;;;;;;10.07;2.30;;;;;;;9.90;100.00;99951.31;5073572;28;20020;-36
2023/03/31 02:57:38;;;;;;;7.00;2.03;;;;;;;9.89;100.00;99945.09;5074196;28;20028;-36
2023/03/31 03:00:09;;;;;;;5.88;2.03;;;;;;;9.91;100.00;99936.78;5073512;28;20536;-36
2023/03/31 03:02:46;;;;;;;10.50;2.63;;;;;;;9.90;100.00;99929.72;5074350;28;20072;-36
2023/03/31 03:05:21;;;;;;;11.05;2.08;;;;;;;9.89;100.00;99936.19;5074101;28;20039;-36
2023/03/31 03:08:05;;;;;;;4.82;1.92;;;;;;;9.76;100.00;99907.66;5073132;28;20364;-36
2023/03/31 03:11:17;;;;;;;10.25;2.40;;;;;;;9.87;100.00;99914.84;5073185;28;20043;-36
2023/03/31 03:14:06;;;;;;;11.88;3.92;;;;;;;9.86;100.00;99912.38;5073473;28;20032;-36
2023/03/31 03:16:49;;;;;;;9.43;2.67;;;;;;;9.81;100.00;99899.66;5073967;28;20024;-36
2023/03/31 03:19:20;;;;;;;7.05;2.40;;;;;;;9.87;100.00;99904.03;5073441;28;20013;-36
2023/03/31 03:21:46;;;;;;;9.73;2.75;;;;;;;9.86;100.00;99904.28;5073863;28;20020;-36
2023/03/31 03:24:16;;;;;;;8.45;2.30;;;;;;;9.84;100.00;99899.13;5073348;28;20077;-36
2023/03/31 03:26:43;;;;;;;7.88;2.53;;;;;;;9.77;100.00;99896.63;5073554;28;20020;-36
2023/03/31 03:29:11;;;;;;;8.70;2.40;;;;;;;9.83;100.00;99892.09;5073786;28;20032;-36
2023/03/31 03:31:36;;;;;;;9.40;2.20;;;;;;;9.85;100.00;99889.97;5073293;28;20452;-36
2023/03/31 03:34:02;;;;;;;8.13;2.15;;;;;;;9.86;100.00;99888.06;5073288;28;20081;-36
2023/03/31 03:36:27;;;;;;;11.60;2.58;;;;;;;9.86;100.00;99890.78;5072972;28;20028;-36
2023/03/31 03:38:52;;;;;;;8.67;2.40;;;;;;;9.86;100.00;99894.31;5073523;28;20032;-36
2023/03/31 03:41:17;;;;;;;8.73;2.50;;;;;;;9.78;100.00;99870.44;5073440;28;20266;-36
2023/03/31 03:43:43;;;;;;;11.30;2.87;;;;;;;9.84;100.00;99866.72;5073153;28;20381;-36
2023/03/31 03:46:08;;;;;;;10.93;3.47;;;;;;;9.85;100.00;99862.16;5073775;28;20158;-36
2023/03/31 03:48:34;;;;;;;10.97;2.50;;;;;;;9.81;100.00;99851.06;5075866;28;20461;-36
2023/03/31 03:51:00;;;;;;;9.05;2.70;;;;;;;9.79;100.00;99843.19;5076931;28;20259;-36
2023/03/31 03:53:25;;;;;;;12.48;2.92;;;;;;;9.74;100.00;99826.09;5077039;28;20029;-36
2023/03/31 03:55:50;;;;;;;14.87;3.20;;;;;;;9.79;100.00;99831.56;5077616;28;20027;-36
2023/03/31 03:58:18;;;;;;;11.43;2.40;;;;;;;9.77;100.00;99815.63;5077037;28;20266;-36
2023/03/31 04:00:44;;;;;;;8.30;2.60;;;;;;;9.70;100.00;99795.28;5076415;28;20053;-36
2023/03/31 04:03:09;;;;;;;7.50;1.83;;;;;;;9.75;100.00;99803.44;5076720;28;20028;-37
2023/03/31 04:05:35;;;;;;;10.27;3.05;;;;;;;9.72;100.00;99795.84;5077421;28;20024;-37
2023/03/31 04:08:00;;;;;;;9.67;2.37;;;;;;;9.70;100.00;99782.59;5076488;28;20454;-37
2023/03/31 04:10:25;;;;;;;10.90;2.40;;;;;;;9.69;100.00;99774.75;5076804;28;20029;-36
2023/03/31 04:12:51;;;;;;;10.23;2.57;;;;;;;9.67;100.00;99779.59;5076206;28;20054;-37
2023/03/31 04:15:16;;;;;;;5.73;1.87;;;;;;;9.66;100.00;99765.28;5076529;28;20457;-37
2023/03/31 04:17:49;;;;;;;8.67;2.00;;;;;;;9.67;100.00;99758.00;5076403;28;20369;-36
2023/03/31 04:20:16;;;;;;;8.25;2.20;;;;;;;9.64;100.00;99745.81;5076225;28;20255;-36
2023/03/31 04:22:41;;;;;;;7.05;1.63;;;;;;;9.61;100.00;99738.19;5076777;28;20028;-36
2023/03/31 04:25:15;;;;;;;5.43;1.58;;;;;;;9.61;100.00;99740.09;5076597;28;20020;-36
2023/03/31 04:27:49;;;;;;;9.27;2.55;;;;;;;9.55;100.00;99726.53;5076752;28;20070;-36
2023/03/31 04:30:21;;;;;;;6.70;1.88;;;;;;;9.51;100.00;99727.28;5076447;28;20048;-36
2023/03/31 04:32:54;;;;;;;7.35;1.80;;;;;;;9.52;100.00;99729.75;5076103;28;20047;-36
2023/03/31 04:35:24;;;;;;;8.48;1.90;;;;;;;9.50;100.00;99718.38;5076055;28;20027;-36
2023/03/31 04:37:57;;;;;;;6.93;2.00;;;;;;;9.53;100.00;99717.88;5076317;28;20095;-36
2023/03/31 04:40:23;;;;;;;8.02;1.95;;;;;;;9.52;100.00;99708.16;5075854;28;20021;-36
2023/03/31 04:42:48;;;;;;;7.82;1.70;;;;;;;9.53;100.00;99699.00;5075889;28;20036;-36
2023/03/31 04:45:13;;;;;;;6.20;1.87;;;;;;;9.55;100.00;99704.13;5076247;28;20032;-36
2023/03/31 04:47:39;;;;;;;6.70;1.90;;;;;;;9.53;100.00;99688.19;5076099;28;20035;-36
2023/03/31 04:50:05;;;;;;;5.78;1.70;;;;;;;9.52;100.00;99674.97;5075848;28;20108;-36
2023/03/31 04:52:30;;;;;;;9.15;2.45;;;;;;;9.50;100.00;99672.50;5075654;28;20028;-36
2023/03/31 04:54:58;;;;;;;6.17;1.73;;;;;;;9.49;100.00;99667.34;5075718;28;20074;-36
2023/03/31 04:57:23;;;;;;;8.18;1.98;;;;;;;9.46;100.00;99659.75;5076203;28;20016;-36
2023/03/31 04:59:48;;;;;;;6.97;1.70;;;;;;;9.42;100.00;99648.66;5075557;28;20043;-36
2023/03/31 05:02:20;;;;;;;5.67;1.87;;;;;;;9.50;100.00;99652.78;5076087;28;20049;-36
2023/03/31 05:04:46;;;;;;;6.65;1.88;;;;;;;9.49;100.00;99654.69;5076030;28;20021;-36
2023/03/31 05:07:11;;;;;;;8.30;2.33;;;;;;;9.50;100.00;99644.69;5075429;28;20341;-36
2023/03/31 05:09:36;;;;;;;6.93;1.87;;;;;;;9.49;100.00;99643.88;5076059;28;20020;-36
2023/03/31 05:12:02;;;;;;;7.20;1.70;;;;;;;9.49;100.00;99643.88;5075423;28;20033;-36
2023/03/31 05:14:27;;;;;;;5.32;1.77;;;;;;;9.49;100.00;99638.47;5075339;28;20025;-36
2023/03/31 05:16:56;;;;;;;7.83;1.73;;;;;;;9.50;100.00;99634.72;5075010;28;20111;-36
2023/03/31 05:19:22;;;;;;;7.07;2.08;;;;;;;9.47;100.00;99624.44;5075140;28;20024;-36
2023/03/31 05:21:47;;;;;;;5.03;1.55;;;;;;;9.45;100.00;99614.97;5075139;28;20363;-36
2023/03/31 05:24:13;;;;;;;7.22;1.67;;;;;;;9.46;100.00;99614.69;5075667;28;20025;-37
2023/03/31 05:26:39;;;;;;;6.10;1.50;;;;;;;9.46;100.00;99614.69;5075418;28;20052;-36
2023/03/31 05:29:05;;;;;;;5.32;1.65;;;;;;;9.44;100.00;99600.66;5074950;28;20023;-36
2023/03/31 05:31:31;;;;;;;5.70;1.23;;;;;;;9.46;100.00;99600.38;5075564;28;20025;-37
2023/03/31 05:33:56;;;;;;;6.85;1.50;;;;;;;9.45;100.00;99604.97;5074905;28;20138;-36
2023/03/31 05:36:22;;;;;;;7.47;1.90;;;;;;;9.43;100.00;99607.13;5075469;28;20020;-36
2023/03/31 05:38:48;;;;;;;4.85;1.65;;;;;;;9.39;100.00;99595.22;5074795;28;20025;-36
2023/03/31 05:41:15;;;;;;;4.95;1.70;;;;;;;9.45;100.00;99598.75;5075568;28;20052;-36
2023/03/31 05:43:42;;;;;;;8.45;1.60;;;;;;;9.42;100.00;99588.47;5074633;28;20032;-36
2023/03/31 05:46:08;;;;;;;6.28;1.63;;;;;;;9.40;100.00;99586.03;5074631;28;20063;-39
2023/03/31 05:48:33;;;;;;;7.10;1.80;;;;;;;9.45;100.00;99577.19;5074563;28;20024;-36
2023/03/31 05:51:00;;;;;;;5.22;1.52;;;;;;;9.47;100.00;99583.16;5074836;28;20411;-37
2023/03/31 05:53:26;;;;;;;6.68;1.70;;;;;;;9.39;100.00;99572.81;5074466;28;20029;-36
2023/03/31 05:56:02;;;;;;;;;;;;;;;9.49;100.00;99584.50;5074902;28;20039;-37
2023/03/31 05:58:28;;;;;;;4.95;1.33;;;;;;;9.40;100.00;99586.03;5075220;28;19908;-37
2023/03/31 06:01:07;;;;;;;5.38;1.48;;;;;;;9.47;100.00;99591.25;5074734;28;20417;-36
2023/03/31 06:03:34;;;;;;;4.85;1.25;;;;;;;9.48;100.00;99582.91;5074829;28;20093;-36
2023/03/31 06:06:04;;;;;;;3.80;1.30;;;;;;;9.49;100.00;99584.50;5073989;28;20082;-37
2023/03/31 06:08:30;;;;;;;7.63;2.17;;;;;;;9.42;100.00;99583.91;5074184;28;20461;-36
2023/03/31 06:10:56;;;;;;;4.28;1.50;;;;;;;9.36;100.00;99574.13;5073663;28;20074;-36
2023/03/31 06:13:21;;;;;;;;;;;;;;;9.48;100.00;99574.81;5074135;28;20464;-37
2023/03/31 06:15:58;;;;;;;4.30;1.20;;;;;;;9.45;100.00;99574.47;5074640;28;19958;-35
2023/03/31 06:18:25;;;;;;;5.55;1.55;;;;;;;9.43;100.00;99569.34;5074161;28;20017;-36
2023/03/31 06:20:51;;;;;;;7.60;1.73;;;;;;;9.42;100.00;99566.88;5073585;28;20029;-36
2023/03/31 06:23:16;;;;;;;5.47;1.60;;;;;;;9.40;100.00;99553.66;5074232;28;20024;-36
2023/03/31 06:25:41;;;;;;;3.93;1.47;;;;;;;9.39;100.00;99562.81;5073457;28;20115;-36
2023/03/31 06:28:07;;;;;;;5.20;1.73;;;;;;;9.40;100.00;99563.63;5073929;28;20024;-36
2023/03/31 06:30:33;;;;;;;5.03;1.98;;;;;;;9.35;100.00;99563.59;5074191;28;20361;-36
2023/03/31 06:32:58;;;;;;;3.75;1.30;;;;;;;9.34;100.00;99549.28;5073583;28;20149;-36
2023/03/31 06:35:23;;;;;;;5.63;1.70;;;;;;;9.25;100.00;99543.53;5073907;28;20065;-36
2023/03/31 06:37:49;;;;;;;3.70;1.40;;;;;;;9.34;100.00;99535.78;5073594;28;20149;-36
2023/03/31 06:40:15;;;;;;;6.03;1.50;;;;;;;9.30;100.00;99537.38;5073459;28;20024;-36
2023/03/31 06:42:40;;;;;;;4.75;1.25;;;;;;;9.27;100.00;99535.16;5074044;28;20036;-37
2023/03/31 06:45:06;;;;;;;5.47;1.60;;;;;;;9.29;100.00;99535.75;5073757;28;20062;-37
2023/03/31 06:47:31;;;;;;;3.55;1.30;;;;;;;9.30;100.00;99537.38;5073592;28;20266;-36
2023/03/31 06:49:57;;;;;;;4.80;1.40;;;;;;;9.30;100.00;99534.66;5073720;28;20025;-36
2023/03/31 06:52:22;;;;;;;4.73;1.27;;;;;;;9.24;100.00;99523.03;5073639;28;20066;-36
2023/03/31 06:54:47;;;;;;;4.00;1.27;;;;;;;9.30;100.00;99534.66;5073661;28;20074;-36
2023/03/31 06:57:12;;;;;;;6.07;1.40;;;;;;;9.29;100.00;99528.47;5074410;28;20146;-37
2023/03/31 06:59:38;;;;;;;2.43;0.97;;;;;;;9.30;100.00;99526.59;5074227;28;20012;-36
2023/03/31 07:02:03;;;;;;;4.63;1.23;;;;;;;9.25;100.00;99505.75;5073983;28;20127;-36
2023/03/31 07:04:29;;;;;;;3.40;1.17;;;;;;;9.21;100.00;99501.13;5073854;28;20059;-36
2023/03/31 07:06:54;;;;;;;4.23;1.20;;;;;;;9.21;100.00;99496.53;5073274;28;20373;-36
2023/03/31 07:09:22;;;;;;;4.53;1.52;;;;;;;9.18;100.00;99493.56;5073546;28;20265;-36
2023/03/31 07:11:48;;;;;;;3.30;1.17;;;;;;;9.19;100.00;99501.38;5073456;28;20024;-37
2023/03/31 07:14:13;;;;;;;2.78;1.20;;;;;;;9.29;100.00;99498.78;5073572;28;20116;-37
2023/03/31 07:16:38;;;;;;;1.90;0.80;;;;;;;9.33;100.00;99493.72;5074059;28;20033;-37
2023/03/31 07:19:05;;;;;;;3.13;0.90;;;;;;;9.29;100.00;99476.41;5073461;28;20261;-37
2023/03/31 07:21:31;;;;;;;3.25;0.90;;;;;;;9.41;100.00;99492.41;5073296;28;20333;-37
2023/03/31 07:23:57;;;;;;;4.72;1.23;;;;;;;9.44;100.00;99479.22;5077482;28;20103;-37
2023/03/31 07:26:23;;;;;;;2.88;1.15;;;;;;;9.50;100.00;99486.28;5077963;28;20352;-36
2023/03/31 07:28:48;;;;;;;;;;;;;;;9.55;100.00;99486.34;5077675;28;20023;-36
2023/03/31 07:31:13;;;;;;;3.50;1.13;;;;;;;9.52;100.00;99480.66;5077789;28;19904;-36
2023/03/31 07:33:40;;;;;;;5.82;1.55;;;;;;;9.58;100.00;99485.03;5077134;28;20479;-36
2023/03/31 07:36:05;;;;;;;;;;;;;;;9.61;100.00;99483.69;5078160;28;20021;-36
2023/03/31 07:38:31;;;;;;;7.00;1.85;;;;;;;9.61;100.00;99478.28;5077119;28;19912;-36
2023/03/31 07:40:56;;;;;;;6.05;1.90;;;;;;;9.63;100.00;99468.06;5076777;28;20064;-36
2023/03/31 07:43:22;;;;;;;5.67;1.70;;;;;;;9.66;100.00;99475.63;5077030;28;20149;-36
2023/03/31 07:45:47;;;;;;;8.65;2.10;;;;;;;9.70;100.00;99466.75;5077087;28;20065;-36
2023/03/31 07:48:13;;;;;;;5.05;1.70;;;;;;;9.73;100.00;99468.94;5076682;28;20024;-36
2023/03/31 07:50:38;;;;;;;6.43;2.10;;;;;;;9.79;100.00;99461.69;5077548;28;20104;-36
2023/03/31 07:53:04;;;;;;;6.60;2.10;;;;;;;9.86;100.00;99461.47;5076841;28;20100;-36
2023/03/31 07:55:29;;;;;;;7.57;2.00;;;;;;;9.85;100.00;99457.94;5077065;28;20259;-36
2023/03/31 07:57:55;;;;;;;5.72;1.85;;;;;;;9.97;100.00;99466.69;5076725;28;20104;-36
2023/03/31 08:00:21;;;;;;;9.18;2.10;;;;;;;10.03;100.00;99460.22;5076912;28;20044;-36
2023/03/31 08:02:47;;;;;;;6.55;2.20;;;;;;;9.99;100.00;99445.63;5076689;28;20407;-36
2023/03/31 08:05:15;;;;;;;7.90;2.53;;;;;;;10.16;100.00;99464.38;5076905;28;20025;-36
2023/03/31 08:07:43;;;;;;;9.02;2.55;;;;;;;10.22;100.00;99451.69;5076180;28;20457;-36
2023/03/31 08:10:11;;;;;;;8.13;2.20;;;;;;;10.24;100.00;99453.06;5076310;28;20028;-36
2023/03/31 08:12:37;;;;;;;9.18;2.75;;;;;;;10.28;100.00;99451.47;5076397;28;20027;-36
2023/03/31 08:15:03;;;;;;;8.73;2.27;;;;;;;10.27;100.00;99455.25;5076730;28;20376;-36
2023/03/31 08:17:28;;;;;;;;;;;;;;;10.35;100.00;99451.25;5076782;28;20024;-36
2023/03/31 08:19:53;;;;;;;10.45;2.67;;;;;;;10.32;100.00;99443.66;5076351;28;19938;-36
2023/03/31 08:22:19;;;;;;;8.60;2.47;;;;;;;10.35;100.00;99453.97;5075985;28;20020;-36
2023/03/31 08:24:46;;;;;;;10.20;2.47;;;;;;;10.39;100.00;99446.94;5077073;28;20054;-36
2023/03/31 08:27:11;;;;;;;11.52;3.17;;;;;;;10.42;100.00;99449.13;5076462;28;20034;-36
2023/03/31 08:29:36;;;;;;;11.70;3.03;;;;;;;10.45;100.00;99439.69;5076509;28;20164;-36
2023/03/31 08:32:02;;;;;;;11.00;2.73;;;;;;;10.50;100.00;99445.09;5075879;28;20529;-36
2023/03/31 08:34:27;;;;;;;11.43;3.30;;;;;;;10.50;100.00;99443.22;5075706;28;20411;-36
2023/03/31 08:36:52;;;;;;;7.67;2.37;;;;;;;10.51;100.00;99439.44;5076446;28;20460;-36
2023/03/31 08:39:18;;;;;;;10.90;3.20;;;;;;;10.54;100.00;99433.50;5075707;28;20450;-36
2023/03/31 08:42:04;;;;;;;13.60;3.50;;;;;;;10.68;100.00;99441.91;5076196;28;20089;-36
2023/03/31 08:44:38;;;;;;;11.15;3.08;;;;;;;10.68;100.00;99436.50;5076205;28;20025;-36
2023/03/31 08:47:09;;;;;;;9.27;2.88;;;;;;;10.71;100.00;99437.88;5075946;28;20025;-36
2023/03/31 08:49:51;;;;;;;12.35;3.72;;;;;;;10.74;100.00;99435.47;5075895;28;20154;-36
2023/03/31 08:52:28;;;;;;;14.45;3.40;;;;;;;10.77;100.00;99429.50;5076041;28;20108;-36
2023/03/31 08:55:00;;;;;;;10.10;2.92;;;;;;;10.78;100.00;99422.19;5075706;28;20025;-36
2023/03/31 08:57:35;;;;;;;10.82;3.00;;;;;;;10.90;100.00;99419.25;5075999;28;20031;-36
2023/03/31 09:00:05;;;;;;;11.32;2.88;;;;;;;10.91;100.00;99419.00;5075836;28;20502;-36
2023/03/31 09:02:58;;;;;;;13.93;3.65;;;;;;;10.92;100.00;99423.31;5076757;28;20498;-36
2023/03/31 09:05:29;;;;;;;11.43;3.20;;;;;;;10.92;100.00;99419.78;5075558;28;20024;-36
2023/03/31 09:08:36;;;;;;;9.63;2.95;;;;;;;11.07;100.00;99425.22;5076073;28;20036;-36
2023/03/31 09:11:35;;;;;;;12.68;3.40;;;;;;;11.15;100.00;99416.59;5075079;28;20048;-36
2023/03/31 09:14:37;;;;;;;15.05;3.50;;;;;;;11.13;100.00;99412.53;5064072;28;20349;-36
2023/03/31 09:17:20;;;;;;;12.18;3.30;;;;;;;11.25;100.00;99415.78;5075001;28;20027;-36
2023/03/31 09:19:51;;;;;;;16.10;3.78;;;;;;;11.25;100.00;99408.47;5075807;28;20024;-36
2023/03/31 09:22:24;;;;;;;13.48;3.75;;;;;;;11.37;100.00;99412.78;5075389;28;20033;-36
2023/03/31 09:25:04;;;;;;;13.18;3.15;;;;;;;11.47;100.00;99402.81;5075215;28;20020;-36
2023/03/31 09:27:33;;;;;;;14.60;3.78;;;;;;;11.53;100.00;99400.91;5075094;28;20107;-36
2023/03/31 09:30:22;;;;;;;9.48;3.10;;;;;;;11.53;100.00;99401.72;5075279;28;20028;-36
2023/03/31 09:33:08;;;;;;;11.80;3.25;;;;;;;11.55;100.00;99398.72;5064011;28;20364;-36
2023/03/31 09:35:34;;;;;;;13.25;4.18;;;;;;;11.51;100.00;99389.50;5074935;28;20368;-36
2023/03/31 09:37:59;;;;;;;10.05;3.40;;;;;;;11.59;100.00;99397.91;5074868;28;20034;-36
2023/03/31 09:40:27;;;;;;;13.37;3.07;;;;;;;11.58;100.00;99393.56;5074844;28;20024;-36
2023/03/31 09:42:57;;;;;;;12.75;3.08;;;;;;;11.59;100.00;99388.97;5074783;28;20263;-36
2023/03/31 09:45:22;;;;;;;11.60;3.25;;;;;;;11.62;100.00;99383.03;5074208;28;20028;-36
2023/03/31 09:47:55;;;;;;;11.77;3.08;;;;;;;11.65;100.00;99381.66;5074391;28;20032;-36
2023/03/31 09:50:22;;;;;;;11.27;3.13;;;;;;;11.71;100.00;99385.97;5075222;28;20098;-36
2023/03/31 09:52:52;;;;;;;10.55;3.00;;;;;;;11.69;100.00;99383.53;5075339;28;20387;-36
2023/03/31 09:55:31;;;;;;;11.48;4.38;;;;;;;11.70;100.00;99378.94;5074717;28;20021;-36
2023/03/31 09:57:59;;;;;;;10.60;3.00;;;;;;;11.76;100.00;99375.13;5075310;28;20032;-36
2023/03/31 10:00:26;;;;;;;10.32;2.45;;;;;;;11.85;100.00;99384.34;5074303;28;20025;-36
2023/03/31 10:02:54;;;;;;;9.52;2.83;;;;;;;11.88;100.00;99375.69;5074391;28;20060;-36
2023/03/31 10:05:28;;;;;;;9.55;3.22;;;;;;;11.95;100.00;99373.47;5074608;28;20073;-36
2023/03/31 10:08:15;;;;;;;10.88;3.20;;;;;;;11.99;100.00;99377.25;5074550;28;20024;-36
2023/03/31 10:11:05;;;;;;;9.80;2.45;;;;;;;12.02;100.00;99379.44;5074519;28;20360;-36
2023/03/31 10:13:40;;;;;;;8.90;2.55;;;;;;;11.98;100.00;99375.66;5066436;28;20032;-36
2023/03/31 10:16:11;;;;;;;9.13;3.10;;;;;;;11.92;100.00;99370.53;5074131;28;20028;-36
2023/03/31 10:18:40;;;;;;;8.32;2.78;;;;;;;11.99;100.00;99360.19;5074981;28;20067;-36
2023/03/31 10:21:17;;;;;;;7.72;2.65;;;;;;;11.97;100.00;99365.91;5074806;28;20024;-36
2023/03/31 10:23:46;;;;;;;10.13;2.90;;;;;;;12.00;100.00;99357.22;5074880;28;20033;-36
2023/03/31 10:26:35;;;;;;;9.05;2.58;;;;;;;12.02;100.00;99371.31;5073755;28;20029;-36
2023/03/31 10:29:01;;;;;;;10.07;2.65;;;;;;;12.04;100.00;99358.28;5073130;28;20040;-36
2023/03/31 10:31:34;;;;;;;8.93;2.20;;;;;;;12.08;100.00;99362.06;5074518;28;20338;-36
2023/03/31 10:34:05;;;;;;;7.78;2.17;;;;;;;12.15;100.00;99344.69;5073892;28;20033;-36
2023/03/31 10:36:30;;;;;;;8.02;2.15;;;;;;;12.11;100.00;99339.84;5074090;28;20506;-35
2023/03/31 10:38:56;;;;;;;6.57;2.30;;;;;;;12.24;100.00;99362.00;5074079;28;20020;-36
2023/03/31 10:41:28;;;;;;;7.45;2.40;;;;;;;12.17;100.00;99342.53;5073661;28;20039;-36
2023/03/31 10:43:58;;;;;;;7.20;2.10;;;;;;;12.22;100.00;99359.56;5073442;28;20032;-36
2023/03/31 10:46:47;;;;;;;8.02;2.60;;;;;;;12.14;100.00;99340.38;5074297;28;20042;-35
2023/03/31 10:49:34;;;;;;;10.05;2.60;;;;;;;12.09;100.00;99344.72;5074477;28;20032;-36
2023/03/31 10:52:02;;;;;;;8.63;2.60;;;;;;;12.07;100.00;99336.06;5062649;28;20032;-36
2023/03/31 10:54:28;;;;;;;9.70;2.42;;;;;;;12.13;100.00;99336.84;5073621;28;20031;-36
2023/03/31 10:56:56;;;;;;;8.00;2.38;;;;;;;12.17;100.00;99324.38;5073445;28;20024;-36
2023/03/31 10:59:31;;;;;;;11.00;3.30;;;;;;;12.35;100.00;99331.06;5073343;28;20029;-36
2023/03/31 11:02:38;;;;;;;9.93;2.90;;;;;;;12.31;100.00;99330.81;5074070;28;20060;-35
2023/03/31 11:05:30;;;;;;;9.13;2.63;;;;;;;12.35;100.00;99341.91;5074368;28;20524;-36
2023/03/31 11:08:14;;;;;;;11.32;2.72;;;;;;;12.31;100.00;99322.66;5074109;28;20017;-35
2023/03/31 11:11:20;;;;;;;10.32;2.90;;;;;;;12.39;100.00;99321.25;5073512;28;20028;-36
2023/03/31 11:13:51;;;;;;;11.70;3.47;;;;;;;12.33;100.00;99325.09;5052210;28;20036;-36
2023/03/31 11:16:47;;;;;;;7.22;2.28;;;;;;;12.35;100.00;99320.22;5073422;28;20095;-36
2023/03/31 11:19:44;;;;;;;8.07;2.40;;;;;;;12.39;100.00;99323.97;5073425;28;20052;-36
2023/03/31 11:22:28;;;;;;;9.93;3.28;;;;;;;12.46;100.00;99316.34;5066247;28;20376;-36
2023/03/31 11:25:21;;;;;;;7.50;2.70;;;;;;;12.52;100.00;99320.66;5073138;28;20024;-35
2023/03/31 11:27:51;;;;;;;9.52;2.50;;;;;;;12.58;100.00;99313.28;5073038;28;20016;-36
2023/03/31 11:30:58;;;;;;;8.10;2.55;;;;;;;12.68;100.00;99309.69;5073604;28;20033;-36
2023/03/31 11:33:45;;;;;;;9.18;3.03;;;;;;;12.79;100.00;99308.56;5073312;28;20040;-36
2023/03/31 11:36:27;;;;;;;7.78;2.72;;;;;;;12.79;100.00;99311.25;5073344;28;20024;-36
2023/03/31 11:39:06;;;;;;;11.63;3.28;;;;;;;12.81;100.00;99312.59;5072988;28;20033;-36
2023/03/31 11:41:33;;;;;;;10.00;2.92;;;;;;;12.76;100.00;99295.53;5073720;28;20360;-35
2023/03/31 11:44:11;;;;;;;11.10;3.50;;;;;;;12.86;100.00;99298.97;5072839;28;20020;-36
2023/03/31 11:46:40;;;;;;;7.53;2.42;;;;;;;12.88;100.00;99290.56;5073441;28;20391;-36